sensor_id;sensor_type;location;lat;lon;timestamp;P1;durP1;ratioP1;P2;durP2;ratioP2
31782;SDS011;18351;47.560;9.708;2023-09-19T00:01:14;1.20;;;1.10;;
31782;SDS011;18351;47.560;9.708;2023-09-19T00:03:40;1.60;;;1.30;;
31782;SDS011;18351;47.560;9.708;2023-09-19T00:06:07;2.45;;;1.35;;
31782;SDS011;18351;47.560;9.708;2023-09-19T00:08:36;3.80;;;1.33;;
31782;SDS011;18351;47.560;9.708;2023-09-19T00:11:01;2.58;;;1.20;;
31782;SDS011;18351;47.560;9.708;2023-09-19T00:13:31;2.30;;;1.52;;
31782;SDS011;18351;47.560;9.708;2023-09-19T00:15:58;4.32;;;1.30;;
31782;SDS011;18351;47.560;9.708;2023-09-19T00:18:25;4.80;;;1.48;;
31782;SDS011;18351;47.560;9.708;2023-09-19T00:20:57;2.75;;;1.40;;
31782;SDS011;18351;47.560;9.708;2023-09-19T00:23:23;5.25;;;1.42;;
31782;SDS011;18351;47.560;9.708;2023-09-19T00:25:49;1.73;;;1.20;;
31782;SDS011;18351;47.560;9.708;2023-09-19T00:28:16;2.85;;;1.58;;
31782;SDS011;18351;47.560;9.708;2023-09-19T00:30:43;3.40;;;1.70;;
31782;SDS011;18351;47.560;9.708;2023-09-19T00:33:09;2.25;;;1.50;;
31782;SDS011;18351;47.560;9.708;2023-09-19T00:35:36;4.32;;;1.77;;
31782;SDS011;18351;47.560;9.708;2023-09-19T00:38:02;3.78;;;1.85;;
31782;SDS011;18351;47.560;9.708;2023-09-19T00:40:28;2.78;;;1.70;;
31782;SDS011;18351;47.560;9.708;2023-09-19T00:42:58;3.17;;;1.60;;
31782;SDS011;18351;47.560;9.708;2023-09-19T00:45:25;5.78;;;2.22;;
31782;SDS011;18351;47.560;9.708;2023-09-19T00:47:50;4.00;;;1.73;;
31782;SDS011;18351;47.560;9.708;2023-09-19T00:50:21;1.60;;;1.35;;
31782;SDS011;18351;47.560;9.708;2023-09-19T00:52:50;2.67;;;1.23;;
31782;SDS011;18351;47.560;9.708;2023-09-19T00:55:18;2.50;;;1.27;;
31782;SDS011;18351;47.560;9.708;2023-09-19T00:57:47;2.63;;;1.40;;
31782;SDS011;18351;47.560;9.708;2023-09-19T01:00:14;4.85;;;1.73;;
31782;SDS011;18351;47.560;9.708;2023-09-19T01:02:41;2.55;;;1.48;;
31782;SDS011;18351;47.560;9.708;2023-09-19T01:05:10;2.13;;;1.30;;
31782;SDS011;18351;47.560;9.708;2023-09-19T01:07:37;1.67;;;1.25;;
31782;SDS011;18351;47.560;9.708;2023-09-19T01:10:07;2.30;;;1.33;;
31782;SDS011;18351;47.560;9.708;2023-09-19T01:15:28;4.03;;;1.52;;
31782;SDS011;18351;47.560;9.708;2023-09-19T01:29:26;4.32;;;1.33;;
31782;SDS011;18351;47.560;9.708;2023-09-19T01:32:04;2.03;;;1.40;;
31782;SDS011;18351;47.560;9.708;2023-09-19T01:34:46;1.60;;;1.50;;
31782;SDS011;18351;47.560;9.708;2023-09-19T01:37:13;3.08;;;1.30;;
31782;SDS011;18351;47.560;9.708;2023-09-19T01:39:39;2.50;;;1.92;;
31782;SDS011;18351;47.560;9.708;2023-09-19T01:42:09;3.35;;;1.40;;
31782;SDS011;18351;47.560;9.708;2023-09-19T01:44:51;1.98;;;1.23;;
31782;SDS011;18351;47.560;9.708;2023-09-19T01:49:59;2.65;;;1.40;;
31782;SDS011;18351;47.560;9.708;2023-09-19T01:55:10;2.40;;;1.10;;
31782;SDS011;18351;47.560;9.708;2023-09-19T01:57:45;2.00;;;1.00;;
31782;SDS011;18351;47.560;9.708;2023-09-19T02:00:17;1.88;;;1.20;;
31782;SDS011;18351;47.560;9.708;2023-09-19T02:02:47;1.70;;;1.38;;
31782;SDS011;18351;47.560;9.708;2023-09-19T02:05:12;2.03;;;1.25;;
31782;SDS011;18351;47.560;9.708;2023-09-19T02:07:38;1.90;;;1.10;;
31782;SDS011;18351;47.560;9.708;2023-09-19T02:10:05;2.40;;;1.40;;
31782;SDS011;18351;47.560;9.708;2023-09-19T02:12:32;1.95;;;1.20;;
31782;SDS011;18351;47.560;9.708;2023-09-19T02:14:58;1.67;;;1.17;;
31782;SDS011;18351;47.560;9.708;2023-09-19T02:17:24;1.80;;;1.27;;
31782;SDS011;18351;47.560;9.708;2023-09-19T02:19:53;1.88;;;1.20;;
31782;SDS011;18351;47.560;9.708;2023-09-19T02:22:19;2.25;;;1.48;;
31782;SDS011;18351;47.560;9.708;2023-09-19T02:24:46;2.15;;;1.30;;
31782;SDS011;18351;47.560;9.708;2023-09-19T02:27:13;2.60;;;1.60;;
31782;SDS011;18351;47.560;9.708;2023-09-19T02:29:41;2.17;;;1.23;;
31782;SDS011;18351;47.560;9.708;2023-09-19T02:32:06;4.88;;;1.58;;
31782;SDS011;18351;47.560;9.708;2023-09-19T02:34:32;3.67;;;1.50;;
31782;SDS011;18351;47.560;9.708;2023-09-19T02:37:01;4.32;;;1.40;;
31782;SDS011;18351;47.560;9.708;2023-09-19T02:39:35;2.55;;;1.20;;
31782;SDS011;18351;47.560;9.708;2023-09-19T02:42:01;2.63;;;1.38;;
31782;SDS011;18351;47.560;9.708;2023-09-19T02:44:29;7.25;;;1.45;;
31782;SDS011;18351;47.560;9.708;2023-09-19T02:46:55;2.10;;;1.42;;
31782;SDS011;18351;47.560;9.708;2023-09-19T02:49:22;1.67;;;1.40;;
31782;SDS011;18351;47.560;9.708;2023-09-19T02:51:48;2.55;;;1.35;;
31782;SDS011;18351;47.560;9.708;2023-09-19T02:54:14;1.60;;;1.40;;
31782;SDS011;18351;47.560;9.708;2023-09-19T02:56:40;2.63;;;1.63;;
31782;SDS011;18351;47.560;9.708;2023-09-19T02:59:06;2.10;;;1.40;;
31782;SDS011;18351;47.560;9.708;2023-09-19T03:01:32;2.80;;;1.50;;
31782;SDS011;18351;47.560;9.708;2023-09-19T03:03:58;2.47;;;1.30;;
31782;SDS011;18351;47.560;9.708;2023-09-19T03:06:24;2.85;;;1.70;;
31782;SDS011;18351;47.560;9.708;2023-09-19T03:08:50;2.53;;;1.50;;
31782;SDS011;18351;47.560;9.708;2023-09-19T03:11:16;2.08;;;1.58;;
31782;SDS011;18351;47.560;9.708;2023-09-19T03:13:46;1.88;;;1.40;;
31782;SDS011;18351;47.560;9.708;2023-09-19T03:16:16;2.25;;;1.48;;
31782;SDS011;18351;47.560;9.708;2023-09-19T03:18:41;4.40;;;1.67;;
31782;SDS011;18351;47.560;9.708;2023-09-19T03:21:07;2.42;;;1.40;;
31782;SDS011;18351;47.560;9.708;2023-09-19T03:23:32;2.38;;;1.48;;
31782;SDS011;18351;47.560;9.708;2023-09-19T03:25:58;4.35;;;1.40;;
31782;SDS011;18351;47.560;9.708;2023-09-19T03:28:24;3.38;;;1.50;;
31782;SDS011;18351;47.560;9.708;2023-09-19T03:30:59;5.18;;;1.30;;
31782;SDS011;18351;47.560;9.708;2023-09-19T03:33:26;3.63;;;1.30;;
31782;SDS011;18351;47.560;9.708;2023-09-19T03:35:52;4.72;;;1.20;;
31782;SDS011;18351;47.560;9.708;2023-09-19T03:38:18;2.42;;;1.60;;
31782;SDS011;18351;47.560;9.708;2023-09-19T03:40:45;2.85;;;1.20;;
31782;SDS011;18351;47.560;9.708;2023-09-19T03:43:10;1.50;;;1.23;;
31782;SDS011;18351;47.560;9.708;2023-09-19T03:45:36;3.83;;;1.23;;
31782;SDS011;18351;47.560;9.708;2023-09-19T03:48:07;2.17;;;1.38;;
31782;SDS011;18351;47.560;9.708;2023-09-19T03:50:36;1.40;;;1.20;;
31782;SDS011;18351;47.560;9.708;2023-09-19T03:53:01;2.13;;;1.33;;
31782;SDS011;18351;47.560;9.708;2023-09-19T03:55:28;3.33;;;1.45;;
31782;SDS011;18351;47.560;9.708;2023-09-19T03:57:55;4.75;;;1.50;;
31782;SDS011;18351;47.560;9.708;2023-09-19T04:00:21;4.93;;;1.27;;
31782;SDS011;18351;47.560;9.708;2023-09-19T04:02:49;1.45;;;1.10;;
31782;SDS011;18351;47.560;9.708;2023-09-19T04:05:17;2.40;;;1.58;;
31782;SDS011;18351;47.560;9.708;2023-09-19T04:07:42;2.80;;;1.30;;
31782;SDS011;18351;47.560;9.708;2023-09-19T04:10:08;2.38;;;1.67;;
31782;SDS011;18351;47.560;9.708;2023-09-19T04:12:36;3.15;;;1.40;;
31782;SDS011;18351;47.560;9.708;2023-09-19T04:15:03;1.38;;;1.27;;
31782;SDS011;18351;47.560;9.708;2023-09-19T04:17:29;2.83;;;1.55;;
31782;SDS011;18351;47.560;9.708;2023-09-19T04:19:57;2.88;;;1.38;;
31782;SDS011;18351;47.560;9.708;2023-09-19T04:22:23;2.40;;;1.38;;
31782;SDS011;18351;47.560;9.708;2023-09-19T04:24:49;1.55;;;1.30;;
31782;SDS011;18351;47.560;9.708;2023-09-19T04:27:14;1.85;;;1.17;;
31782;SDS011;18351;47.560;9.708;2023-09-19T04:29:40;2.45;;;1.30;;
31782;SDS011;18351;47.560;9.708;2023-09-19T04:32:09;1.65;;;1.15;;
31782;SDS011;18351;47.560;9.708;2023-09-19T04:34:35;1.50;;;1.40;;
31782;SDS011;18351;47.560;9.708;2023-09-19T04:37:00;2.28;;;1.40;;
31782;SDS011;18351;47.560;9.708;2023-09-19T04:39:27;3.47;;;1.60;;
31782;SDS011;18351;47.560;9.708;2023-09-19T04:41:53;2.55;;;1.35;;
31782;SDS011;18351;47.560;9.708;2023-09-19T04:44:19;2.38;;;1.33;;
31782;SDS011;18351;47.560;9.708;2023-09-19T04:46:48;4.05;;;1.42;;
31782;SDS011;18351;47.560;9.708;2023-09-19T04:49:13;3.05;;;1.60;;
31782;SDS011;18351;47.560;9.708;2023-09-19T04:51:39;2.83;;;1.67;;
31782;SDS011;18351;47.560;9.708;2023-09-19T04:54:05;3.30;;;1.30;;
31782;SDS011;18351;47.560;9.708;2023-09-19T04:56:31;2.90;;;1.30;;
31782;SDS011;18351;47.560;9.708;2023-09-19T04:58:57;3.25;;;1.42;;
31782;SDS011;18351;47.560;9.708;2023-09-19T05:01:23;2.33;;;1.45;;
31782;SDS011;18351;47.560;9.708;2023-09-19T05:03:49;1.75;;;1.45;;
31782;SDS011;18351;47.560;9.708;2023-09-19T05:06:21;4.03;;;1.38;;
31782;SDS011;18351;47.560;9.708;2023-09-19T05:08:47;5.07;;;1.40;;
31782;SDS011;18351;47.560;9.708;2023-09-19T05:11:17;2.53;;;1.35;;
31782;SDS011;18351;47.560;9.708;2023-09-19T05:13:47;3.05;;;1.27;;
31782;SDS011;18351;47.560;9.708;2023-09-19T05:16:15;2.65;;;1.75;;
31782;SDS011;18351;47.560;9.708;2023-09-19T05:18:43;6.43;;;1.55;;
31782;SDS011;18351;47.560;9.708;2023-09-19T05:21:09;3.35;;;1.85;;
31782;SDS011;18351;47.560;9.708;2023-09-19T05:23:35;5.70;;;1.40;;
31782;SDS011;18351;47.560;9.708;2023-09-19T05:26:01;15.43;;;8.48;;
31782;SDS011;18351;47.560;9.708;2023-09-19T05:28:28;10.63;;;6.70;;
31782;SDS011;18351;47.560;9.708;2023-09-19T05:30:54;8.85;;;3.72;;
31782;SDS011;18351;47.560;9.708;2023-09-19T05:33:20;3.22;;;1.95;;
31782;SDS011;18351;47.560;9.708;2023-09-19T05:35:47;2.78;;;1.40;;
31782;SDS011;18351;47.560;9.708;2023-09-19T05:38:13;2.22;;;1.73;;
31782;SDS011;18351;47.560;9.708;2023-09-19T05:40:40;2.20;;;1.60;;
31782;SDS011;18351;47.560;9.708;2023-09-19T05:43:07;5.20;;;1.75;;
31782;SDS011;18351;47.560;9.708;2023-09-19T05:45:33;3.30;;;1.88;;
31782;SDS011;18351;47.560;9.708;2023-09-19T05:48:06;3.75;;;1.67;;
31782;SDS011;18351;47.560;9.708;2023-09-19T05:50:42;3.08;;;1.50;;
31782;SDS011;18351;47.560;9.708;2023-09-19T05:53:08;3.88;;;1.73;;
31782;SDS011;18351;47.560;9.708;2023-09-19T05:55:37;3.83;;;1.65;;
31782;SDS011;18351;47.560;9.708;2023-09-19T05:58:03;5.35;;;1.50;;
31782;SDS011;18351;47.560;9.708;2023-09-19T06:00:29;1.95;;;1.73;;
31782;SDS011;18351;47.560;9.708;2023-09-19T06:02:57;2.45;;;1.45;;
31782;SDS011;18351;47.560;9.708;2023-09-19T06:05:24;4.57;;;1.73;;
31782;SDS011;18351;47.560;9.708;2023-09-19T06:07:56;2.63;;;1.65;;
31782;SDS011;18351;47.560;9.708;2023-09-19T06:10:25;3.78;;;1.77;;
31782;SDS011;18351;47.560;9.708;2023-09-19T06:12:52;4.03;;;1.83;;
31782;SDS011;18351;47.560;9.708;2023-09-19T06:15:18;2.33;;;1.70;;
31782;SDS011;18351;47.560;9.708;2023-09-19T06:17:47;4.10;;;1.52;;
31782;SDS011;18351;47.560;9.708;2023-09-19T06:20:14;3.45;;;1.75;;
31782;SDS011;18351;47.560;9.708;2023-09-19T06:22:41;2.35;;;1.67;;
31782;SDS011;18351;47.560;9.708;2023-09-19T06:25:07;2.35;;;1.73;;
31782;SDS011;18351;47.560;9.708;2023-09-19T06:27:36;5.13;;;2.20;;
31782;SDS011;18351;47.560;9.708;2023-09-19T06:30:02;3.42;;;2.33;;
31782;SDS011;18351;47.560;9.708;2023-09-19T06:32:28;8.15;;;1.98;;
31782;SDS011;18351;47.560;9.708;2023-09-19T06:34:54;2.75;;;1.58;;
31782;SDS011;18351;47.560;9.708;2023-09-19T06:37:20;6.10;;;2.42;;
31782;SDS011;18351;47.560;9.708;2023-09-19T06:39:47;2.83;;;1.83;;
31782;SDS011;18351;47.560;9.708;2023-09-19T06:42:14;3.47;;;1.80;;
31782;SDS011;18351;47.560;9.708;2023-09-19T06:44:42;4.45;;;1.95;;
31782;SDS011;18351;47.560;9.708;2023-09-19T06:47:07;4.47;;;2.13;;
31782;SDS011;18351;47.560;9.708;2023-09-19T06:49:35;1.98;;;1.48;;
31782;SDS011;18351;47.560;9.708;2023-09-19T06:52:00;4.68;;;2.00;;
31782;SDS011;18351;47.560;9.708;2023-09-19T06:54:26;5.53;;;1.73;;
31782;SDS011;18351;47.560;9.708;2023-09-19T06:56:56;3.78;;;1.80;;
31782;SDS011;18351;47.560;9.708;2023-09-19T06:59:23;3.45;;;1.58;;
31782;SDS011;18351;47.560;9.708;2023-09-19T07:01:49;4.40;;;1.90;;
31782;SDS011;18351;47.560;9.708;2023-09-19T07:04:15;3.97;;;1.85;;
31782;SDS011;18351;47.560;9.708;2023-09-19T07:06:42;2.72;;;2.25;;
31782;SDS011;18351;47.560;9.708;2023-09-19T07:09:08;4.53;;;1.80;;
31782;SDS011;18351;47.560;9.708;2023-09-19T07:11:34;4.97;;;1.75;;
31782;SDS011;18351;47.560;9.708;2023-09-19T07:14:00;5.60;;;1.95;;
31782;SDS011;18351;47.560;9.708;2023-09-19T07:16:28;4.10;;;2.00;;
31782;SDS011;18351;47.560;9.708;2023-09-19T07:18:54;2.95;;;2.00;;
31782;SDS011;18351;47.560;9.708;2023-09-19T07:21:21;2.88;;;2.00;;
31782;SDS011;18351;47.560;9.708;2023-09-19T07:23:47;2.88;;;2.03;;
31782;SDS011;18351;47.560;9.708;2023-09-19T07:26:13;5.13;;;2.42;;
31782;SDS011;18351;47.560;9.708;2023-09-19T07:28:38;4.38;;;2.38;;
31782;SDS011;18351;47.560;9.708;2023-09-19T07:31:04;4.05;;;2.10;;
31782;SDS011;18351;47.560;9.708;2023-09-19T07:33:30;4.30;;;2.38;;
31782;SDS011;18351;47.560;9.708;2023-09-19T07:35:56;5.50;;;2.25;;
31782;SDS011;18351;47.560;9.708;2023-09-19T07:38:22;4.57;;;2.20;;
31782;SDS011;18351;47.560;9.708;2023-09-19T07:40:48;4.10;;;1.67;;
31782;SDS011;18351;47.560;9.708;2023-09-19T07:43:13;4.53;;;2.22;;
31782;SDS011;18351;47.560;9.708;2023-09-19T07:45:39;4.75;;;1.80;;
31782;SDS011;18351;47.560;9.708;2023-09-19T07:48:04;3.28;;;2.05;;
31782;SDS011;18351;47.560;9.708;2023-09-19T07:50:33;3.83;;;2.30;;
31782;SDS011;18351;47.560;9.708;2023-09-19T07:53:01;2.40;;;1.70;;
31782;SDS011;18351;47.560;9.708;2023-09-19T07:55:29;9.80;;;2.00;;
31782;SDS011;18351;47.560;9.708;2023-09-19T07:57:55;6.00;;;2.53;;
31782;SDS011;18351;47.560;9.708;2023-09-19T08:00:21;2.97;;;2.10;;
31782;SDS011;18351;47.560;9.708;2023-09-19T08:02:46;2.42;;;1.60;;
31782;SDS011;18351;47.560;9.708;2023-09-19T08:05:17;2.83;;;1.20;;
31782;SDS011;18351;47.560;9.708;2023-09-19T08:07:44;3.17;;;1.63;;
31782;SDS011;18351;47.560;9.708;2023-09-19T08:10:13;1.30;;;1.20;;
31782;SDS011;18351;47.560;9.708;2023-09-19T08:12:41;3.17;;;1.67;;
31782;SDS011;18351;47.560;9.708;2023-09-19T08:15:13;5.33;;;1.80;;
31782;SDS011;18351;47.560;9.708;2023-09-19T08:17:40;1.92;;;1.40;;
31782;SDS011;18351;47.560;9.708;2023-09-19T08:20:06;1.42;;;1.20;;
31782;SDS011;18351;47.560;9.708;2023-09-19T08:22:41;0.77;;;0.77;;
31782;SDS011;18351;47.560;9.708;2023-09-19T08:25:13;3.55;;;1.10;;
31782;SDS011;18351;47.560;9.708;2023-09-19T08:27:39;2.33;;;0.80;;
31782;SDS011;18351;47.560;9.708;2023-09-19T08:30:05;2.90;;;0.88;;
31782;SDS011;18351;47.560;9.708;2023-09-19T08:32:31;2.10;;;0.82;;
31782;SDS011;18351;47.560;9.708;2023-09-19T08:34:57;5.22;;;1.35;;
31782;SDS011;18351;47.560;9.708;2023-09-19T08:37:22;0.70;;;0.70;;
31782;SDS011;18351;47.560;9.708;2023-09-19T08:39:48;1.45;;;0.80;;
31782;SDS011;18351;47.560;9.708;2023-09-19T08:42:13;1.00;;;0.90;;
31782;SDS011;18351;47.560;9.708;2023-09-19T08:44:41;2.92;;;1.25;;
31782;SDS011;18351;47.560;9.708;2023-09-19T08:47:09;0.90;;;0.90;;
31782;SDS011;18351;47.560;9.708;2023-09-19T08:49:41;2.97;;;1.50;;
31782;SDS011;18351;47.560;9.708;2023-09-19T08:52:27;1.83;;;1.35;;
31782;SDS011;18351;47.560;9.708;2023-09-19T08:54:58;4.57;;;1.30;;
31782;SDS011;18351;47.560;9.708;2023-09-19T08:57:29;2.58;;;1.88;;
31782;SDS011;18351;47.560;9.708;2023-09-19T08:59:59;4.53;;;1.75;;
31782;SDS011;18351;47.560;9.708;2023-09-19T09:02:29;3.17;;;1.90;;
31782;SDS011;18351;47.560;9.708;2023-09-19T09:04:59;2.70;;;1.63;;
31782;SDS011;18351;47.560;9.708;2023-09-19T09:07:25;2.50;;;1.35;;
31782;SDS011;18351;47.560;9.708;2023-09-19T09:09:52;3.50;;;1.60;;
31782;SDS011;18351;47.560;9.708;2023-09-19T09:12:18;6.32;;;1.95;;
31782;SDS011;18351;47.560;9.708;2023-09-19T09:14:44;2.03;;;1.40;;
31782;SDS011;18351;47.560;9.708;2023-09-19T09:17:13;3.42;;;1.65;;
31782;SDS011;18351;47.560;9.708;2023-09-19T09:19:39;2.53;;;1.42;;
31782;SDS011;18351;47.560;9.708;2023-09-19T09:22:09;1.48;;;1.15;;
31782;SDS011;18351;47.560;9.708;2023-09-19T09:24:36;4.28;;;1.50;;
31782;SDS011;18351;47.560;9.708;2023-09-19T09:27:04;3.38;;;1.73;;
31782;SDS011;18351;47.560;9.708;2023-09-19T09:29:48;3.00;;;1.65;;
31782;SDS011;18351;47.560;9.708;2023-09-19T09:34:57;4.70;;;1.77;;
31782;SDS011;18351;47.560;9.708;2023-09-19T09:37:23;4.68;;;1.95;;
31782;SDS011;18351;47.560;9.708;2023-09-19T09:40:09;5.80;;;1.80;;
31782;SDS011;18351;47.560;9.708;2023-09-19T09:42:41;2.90;;;1.60;;
31782;SDS011;18351;47.560;9.708;2023-09-19T09:47:45;3.60;;;1.80;;
31782;SDS011;18351;47.560;9.708;2023-09-19T09:50:25;3.40;;;1.92;;
31782;SDS011;18351;47.560;9.708;2023-09-19T09:53:23;2.53;;;2.00;;
31782;SDS011;18351;47.560;9.708;2023-09-19T09:55:58;4.68;;;2.03;;
31782;SDS011;18351;47.560;9.708;2023-09-19T09:58:31;5.07;;;2.20;;
31782;SDS011;18351;47.560;9.708;2023-09-19T10:01:20;3.17;;;1.98;;
31782;SDS011;18351;47.560;9.708;2023-09-19T10:03:46;7.57;;;2.13;;
31782;SDS011;18351;47.560;9.708;2023-09-19T10:06:16;4.57;;;1.75;;
31782;SDS011;18351;47.560;9.708;2023-09-19T10:11:46;2.10;;;1.67;;
31782;SDS011;18351;47.560;9.708;2023-09-19T10:14:18;2.83;;;1.70;;
31782;SDS011;18351;47.560;9.708;2023-09-19T10:16:49;4.75;;;1.83;;
31782;SDS011;18351;47.560;9.708;2023-09-19T10:19:23;2.17;;;1.52;;
31782;SDS011;18351;47.560;9.708;2023-09-19T10:21:55;3.83;;;1.60;;
31782;SDS011;18351;47.560;9.708;2023-09-19T10:24:22;2.00;;;1.50;;
31782;SDS011;18351;47.560;9.708;2023-09-19T10:26:50;1.40;;;1.30;;
31782;SDS011;18351;47.560;9.708;2023-09-19T10:29:16;4.72;;;1.30;;
31782;SDS011;18351;47.560;9.708;2023-09-19T10:31:44;5.05;;;1.52;;
31782;SDS011;18351;47.560;9.708;2023-09-19T10:34:14;1.67;;;1.50;;
31782;SDS011;18351;47.560;9.708;2023-09-19T10:36:40;2.75;;;1.48;;
31782;SDS011;18351;47.560;9.708;2023-09-19T10:39:10;3.83;;;1.50;;
31782;SDS011;18351;47.560;9.708;2023-09-19T10:41:38;3.25;;;1.70;;
31782;SDS011;18351;47.560;9.708;2023-09-19T10:44:04;2.05;;;1.40;;
31782;SDS011;18351;47.560;9.708;2023-09-19T10:46:31;2.92;;;1.58;;
31782;SDS011;18351;47.560;9.708;2023-09-19T10:49:01;4.28;;;1.63;;
31782;SDS011;18351;47.560;9.708;2023-09-19T10:51:31;2.03;;;1.45;;
31782;SDS011;18351;47.560;9.708;2023-09-19T10:54:06;4.28;;;1.25;;
31782;SDS011;18351;47.560;9.708;2023-09-19T10:56:38;2.05;;;1.02;;
31782;SDS011;18351;47.560;9.708;2023-09-19T10:59:10;1.65;;;1.05;;
31782;SDS011;18351;47.560;9.708;2023-09-19T11:01:45;1.98;;;1.08;;
31782;SDS011;18351;47.560;9.708;2023-09-19T11:04:23;2.00;;;1.13;;
31782;SDS011;18351;47.560;9.708;2023-09-19T11:07:00;1.42;;;1.33;;
31782;SDS011;18351;47.560;9.708;2023-09-19T11:09:42;1.27;;;1.02;;
31782;SDS011;18351;47.560;9.708;2023-09-19T11:12:10;1.08;;;0.82;;
31782;SDS011;18351;47.560;9.708;2023-09-19T11:14:38;2.15;;;1.00;;
31782;SDS011;18351;47.560;9.708;2023-09-19T11:30:46;2.72;;;1.23;;
31782;SDS011;18351;47.560;9.708;2023-09-19T11:33:22;1.77;;;1.00;;
31782;SDS011;18351;47.560;9.708;2023-09-19T11:41:36;2.45;;;0.98;;
31782;SDS011;18351;47.560;9.708;2023-09-19T11:46:34;1.48;;;0.85;;
31782;SDS011;18351;47.560;9.708;2023-09-19T11:49:17;5.32;;;1.00;;
31782;SDS011;18351;47.560;9.708;2023-09-19T11:51:56;3.63;;;0.95;;
31782;SDS011;18351;47.560;9.708;2023-09-19T11:54:24;1.73;;;0.93;;
31782;SDS011;18351;47.560;9.708;2023-09-19T11:56:53;2.50;;;0.98;;
31782;SDS011;18351;47.560;9.708;2023-09-19T11:59:23;1.67;;;1.13;;
31782;SDS011;18351;47.560;9.708;2023-09-19T12:01:55;2.40;;;0.95;;
31782;SDS011;18351;47.560;9.708;2023-09-19T12:07:05;0.98;;;0.88;;
31782;SDS011;18351;47.560;9.708;2023-09-19T12:09:36;1.52;;;1.00;;
31782;SDS011;18351;47.560;9.708;2023-09-19T12:12:05;1.95;;;1.00;;
31782;SDS011;18351;47.560;9.708;2023-09-19T12:14:31;3.47;;;1.20;;
31782;SDS011;18351;47.560;9.708;2023-09-19T12:16:58;3.60;;;1.00;;
31782;SDS011;18351;47.560;9.708;2023-09-19T12:19:25;2.47;;;1.02;;
31782;SDS011;18351;47.560;9.708;2023-09-19T12:21:58;2.17;;;1.48;;
31782;SDS011;18351;47.560;9.708;2023-09-19T12:24:29;2.88;;;0.93;;
31782;SDS011;18351;47.560;9.708;2023-09-19T12:26:59;2.55;;;1.15;;
31782;SDS011;18351;47.560;9.708;2023-09-19T12:29:26;4.82;;;1.13;;
31782;SDS011;18351;47.560;9.708;2023-09-19T12:31:56;2.90;;;1.30;;
31782;SDS011;18351;47.560;9.708;2023-09-19T12:34:23;1.60;;;0.90;;
31782;SDS011;18351;47.560;9.708;2023-09-19T12:37:03;1.10;;;1.00;;
31782;SDS011;18351;47.560;9.708;2023-09-19T12:39:40;2.78;;;1.02;;
31782;SDS011;18351;47.560;9.708;2023-09-19T12:42:08;1.83;;;1.00;;
31782;SDS011;18351;47.560;9.708;2023-09-19T12:44:40;3.13;;;0.90;;
31782;SDS011;18351;47.560;9.708;2023-09-19T12:47:20;1.63;;;1.02;;
31782;SDS011;18351;47.560;9.708;2023-09-19T12:52:36;1.80;;;0.90;;
31782;SDS011;18351;47.560;9.708;2023-09-19T12:55:03;4.38;;;1.75;;
31782;SDS011;18351;47.560;9.708;2023-09-19T12:57:30;1.42;;;0.75;;
31782;SDS011;18351;47.560;9.708;2023-09-19T12:59:59;1.67;;;1.05;;
31782;SDS011;18351;47.560;9.708;2023-09-19T13:02:30;2.95;;;1.35;;
31782;SDS011;18351;47.560;9.708;2023-09-19T13:04:57;2.30;;;1.10;;
31782;SDS011;18351;47.560;9.708;2023-09-19T13:07:43;7.00;;;1.92;;
31782;SDS011;18351;47.560;9.708;2023-09-19T13:10:11;3.08;;;1.05;;
31782;SDS011;18351;47.560;9.708;2023-09-19T13:12:40;11.43;;;3.95;;
31782;SDS011;18351;47.560;9.708;2023-09-19T13:15:09;6.30;;;2.15;;
31782;SDS011;18351;47.560;9.708;2023-09-19T13:17:44;5.07;;;1.20;;
31782;SDS011;18351;47.560;9.708;2023-09-19T13:20:26;4.55;;;1.75;;
31782;SDS011;18351;47.560;9.708;2023-09-19T13:22:57;2.35;;;1.10;;
31782;SDS011;18351;47.560;9.708;2023-09-19T13:25:25;3.00;;;1.33;;
31782;SDS011;18351;47.560;9.708;2023-09-19T13:27:54;2.00;;;0.93;;
31782;SDS011;18351;47.560;9.708;2023-09-19T13:30:24;2.45;;;1.23;;
31782;SDS011;18351;47.560;9.708;2023-09-19T13:32:51;1.35;;;1.00;;
31782;SDS011;18351;47.560;9.708;2023-09-19T13:35:18;3.15;;;1.02;;
31782;SDS011;18351;47.560;9.708;2023-09-19T13:37:45;3.08;;;1.40;;
31782;SDS011;18351;47.560;9.708;2023-09-19T13:40:14;1.92;;;1.05;;
31782;SDS011;18351;47.560;9.708;2023-09-19T13:42:40;1.20;;;1.00;;
31782;SDS011;18351;47.560;9.708;2023-09-19T13:45:06;1.63;;;1.10;;
31782;SDS011;18351;47.560;9.708;2023-09-19T13:47:34;1.30;;;1.20;;
31782;SDS011;18351;47.560;9.708;2023-09-19T13:50:03;1.33;;;1.00;;
31782;SDS011;18351;47.560;9.708;2023-09-19T13:52:30;1.95;;;1.10;;
31782;SDS011;18351;47.560;9.708;2023-09-19T13:54:56;1.80;;;1.05;;
31782;SDS011;18351;47.560;9.708;2023-09-19T13:57:22;4.10;;;1.10;;
31782;SDS011;18351;47.560;9.708;2023-09-19T13:59:51;1.73;;;1.05;;
31782;SDS011;18351;47.560;9.708;2023-09-19T14:02:19;1.52;;;1.00;;
31782;SDS011;18351;47.560;9.708;2023-09-19T14:04:47;1.75;;;1.20;;
31782;SDS011;18351;47.560;9.708;2023-09-19T14:07:16;3.20;;;1.80;;
31782;SDS011;18351;47.560;9.708;2023-09-19T14:09:43;1.15;;;0.85;;
31782;SDS011;18351;47.560;9.708;2023-09-19T14:12:08;2.55;;;1.45;;
31782;SDS011;18351;47.560;9.708;2023-09-19T14:14:34;1.40;;;1.10;;
31782;SDS011;18351;47.560;9.708;2023-09-19T14:16:59;1.88;;;0.95;;
31782;SDS011;18351;47.560;9.708;2023-09-19T14:19:26;2.00;;;1.25;;
31782;SDS011;18351;47.560;9.708;2023-09-19T14:21:52;7.38;;;0.90;;
31782;SDS011;18351;47.560;9.708;2023-09-19T14:24:20;1.40;;;0.88;;
31782;SDS011;18351;47.560;9.708;2023-09-19T14:26:46;3.33;;;1.10;;
31782;SDS011;18351;47.560;9.708;2023-09-19T14:29:12;1.17;;;0.93;;
31782;SDS011;18351;47.560;9.708;2023-09-19T14:31:38;1.23;;;0.90;;
31782;SDS011;18351;47.560;9.708;2023-09-19T14:34:05;1.80;;;1.05;;
31782;SDS011;18351;47.560;9.708;2023-09-19T14:36:31;1.33;;;1.00;;
31782;SDS011;18351;47.560;9.708;2023-09-19T14:38:57;1.17;;;0.90;;
31782;SDS011;18351;47.560;9.708;2023-09-19T14:41:23;1.52;;;0.95;;
31782;SDS011;18351;47.560;9.708;2023-09-19T14:43:50;1.70;;;1.10;;
31782;SDS011;18351;47.560;9.708;2023-09-19T14:46:16;1.20;;;0.98;;
31782;SDS011;18351;47.560;9.708;2023-09-19T14:48:43;1.27;;;0.85;;
31782;SDS011;18351;47.560;9.708;2023-09-19T14:51:09;4.47;;;1.67;;
31782;SDS011;18351;47.560;9.708;2023-09-19T14:53:37;1.65;;;1.00;;
31782;SDS011;18351;47.560;9.708;2023-09-19T14:56:03;1.52;;;0.90;;
31782;SDS011;18351;47.560;9.708;2023-09-19T14:58:30;2.35;;;1.08;;
31782;SDS011;18351;47.560;9.708;2023-09-19T15:01:03;2.95;;;1.17;;
31782;SDS011;18351;47.560;9.708;2023-09-19T15:03:30;2.35;;;1.10;;
31782;SDS011;18351;47.560;9.708;2023-09-19T15:06:03;1.85;;;1.20;;
31782;SDS011;18351;47.560;9.708;2023-09-19T15:08:30;1.80;;;1.27;;
31782;SDS011;18351;47.560;9.708;2023-09-19T15:11:00;1.23;;;0.93;;
31782;SDS011;18351;47.560;9.708;2023-09-19T15:13:31;2.65;;;0.95;;
31782;SDS011;18351;47.560;9.708;2023-09-19T15:15:59;2.45;;;1.27;;
31782;SDS011;18351;47.560;9.708;2023-09-19T15:18:28;1.77;;;1.25;;
31782;SDS011;18351;47.560;9.708;2023-09-19T15:21:02;1.15;;;1.05;;
31782;SDS011;18351;47.560;9.708;2023-09-19T15:23:34;1.70;;;1.13;;
31782;SDS011;18351;47.560;9.708;2023-09-19T15:26:03;3.28;;;1.17;;
31782;SDS011;18351;47.560;9.708;2023-09-19T15:28:29;1.30;;;1.20;;
31782;SDS011;18351;47.560;9.708;2023-09-19T15:31:00;1.13;;;0.93;;
31782;SDS011;18351;47.560;9.708;2023-09-19T15:33:26;2.35;;;1.30;;
31782;SDS011;18351;47.560;9.708;2023-09-19T15:35:59;2.22;;;1.20;;
31782;SDS011;18351;47.560;9.708;2023-09-19T15:38:28;1.20;;;0.90;;
31782;SDS011;18351;47.560;9.708;2023-09-19T15:40:54;1.75;;;1.10;;
31782;SDS011;18351;47.560;9.708;2023-09-19T15:43:20;2.17;;;1.10;;
31782;SDS011;18351;47.560;9.708;2023-09-19T15:45:46;1.52;;;0.98;;
31782;SDS011;18351;47.560;9.708;2023-09-19T15:48:13;3.53;;;1.08;;
31782;SDS011;18351;47.560;9.708;2023-09-19T15:50:39;1.60;;;1.00;;